Time;durP1;ratioP1;P1;durP2;ratioP2;P2;SDS_P1;SDS_P2;PMS_P1;PMS_P2;Temp;Humidity;BMP_temperature;BMP_pressure;BME280_temperature;BME280_humidity;BME280_pressure;Samples;Min_cycle;Max_cycle;Signal;HPM_P1;HPM_P2
2022/07/12 00:01:23;;;;;;;6.72;2.97;;;;;;;13.39;73.12;94523.91;4829873;29;20055;-59
2022/07/12 00:03:49;;;;;;;5.63;3.40;;;;;;;13.16;73.90;94527.41;4838264;29;20064;-59
2022/07/12 00:06:16;;;;;;;6.60;3.47;;;;;;;13.19;73.75;94525.78;4839600;29;20046;-59
2022/07/12 00:08:43;;;;;;;5.85;3.40;;;;;;;13.23;73.68;94526.53;4839844;29;20129;-59
2022/07/12 00:11:10;;;;;;;4.93;3.40;;;;;;;13.23;73.92;94531.25;4839492;29;20602;-61
2022/07/12 00:13:36;;;;;;;5.82;3.20;;;;;;;13.19;73.61;94536.81;4839826;29;20737;-60
2022/07/12 00:16:04;;;;;;;8.40;3.10;;;;;;;13.17;74.03;94531.72;4826764;29;20057;-59
2022/07/12 00:18:30;;;;;;;5.43;3.28;;;;;;;13.15;73.62;94531.34;4829125;29;20054;-59
2022/07/12 00:20:57;;;;;;;5.55;3.10;;;;;;;13.11;73.66;94538.13;4837829;29;20069;-59
2022/07/12 00:23:24;;;;;;;5.28;3.30;;;;;;;13.05;74.47;94537.03;4839940;29;20072;-59
2022/07/12 00:25:51;;;;;;;5.68;3.60;;;;;;;12.81;74.81;94539.72;4823308;29;20053;-59
2022/07/12 00:28:18;;;;;;;5.97;3.43;;;;;;;12.83;74.09;94539.31;4839410;29;20048;-59
2022/07/12 00:30:44;;;;;;;8.18;3.30;;;;;;;12.66;73.96;94536.41;4839817;29;20058;-59
2022/07/12 00:33:11;;;;;;;7.88;3.35;;;;;;;12.75;74.46;94533.13;4839131;29;20049;-59
2022/07/12 00:35:38;;;;;;;5.72;3.42;;;;;;;12.80;73.75;94538.19;4821570;29;20054;-59
2022/07/12 00:38:05;;;;;;;7.25;3.80;;;;;;;12.83;74.05;94537.34;4836378;29;20057;-61
2022/07/12 00:40:31;;;;;;;6.33;3.80;;;;;;;12.81;74.07;94534.22;4839750;29;20053;-59
2022/07/12 00:42:58;;;;;;;5.82;3.60;;;;;;;12.73;73.63;94533.53;4839225;29;20054;-59
2022/07/12 00:45:25;;;;;;;6.90;3.40;;;;;;;12.73;73.62;94535.50;4801488;29;20611;-59
2022/07/12 00:47:52;;;;;;;5.47;3.40;;;;;;;12.66;74.12;94536.41;4812977;29;20054;-60
2022/07/12 00:50:23;;;;;;;5.57;3.42;;;;;;;12.62;73.93;94535.66;4829329;29;20494;-59
2022/07/12 00:52:52;;;;;;;5.80;3.10;;;;;;;12.53;73.82;94541.66;4831235;29;20133;-59
2022/07/12 00:55:21;;;;;;;5.18;2.97;;;;;;;12.51;73.61;94529.50;4834219;29;21758;-59
2022/07/12 00:57:48;;;;;;;6.93;3.55;;;;;;;12.50;74.00;94527.97;4832823;29;20060;-59
2022/07/12 01:00:22;;;;;;;4.97;3.20;;;;;;;12.46;73.65;94522.50;4844888;29;20053;-59
2022/07/12 01:02:50;;;;;;;5.05;3.30;;;;;;;12.46;73.83;94521.72;4815646;29;20057;-60
2022/07/12 01:05:18;;;;;;;4.77;3.20;;;;;;;12.34;73.84;94526.56;4823160;29;20480;-59
2022/07/12 01:07:45;;;;;;;5.20;3.20;;;;;;;12.31;73.76;94521.88;4845294;29;20038;-60
2022/07/12 01:10:12;;;;;;;4.82;3.17;;;;;;;12.25;74.31;94528.25;4844813;29;20519;-59
2022/07/12 01:12:39;;;;;;;5.10;2.97;;;;;;;12.21;74.77;94528.28;4845436;29;20046;-60
2022/07/12 01:15:07;;;;;;;5.97;3.13;;;;;;;12.21;75.09;94525.53;4844918;29;20510;-60
2022/07/12 01:17:34;;;;;;;5.30;3.43;;;;;;;12.18;75.77;94523.63;4843775;29;20415;-60
2022/07/12 01:20:03;;;;;;;5.47;3.60;;;;;;;12.20;76.43;94526.75;4834309;29;20081;-60
2022/07/12 01:22:36;;;;;;;6.10;3.58;;;;;;;12.19;75.85;94522.41;4845334;29;20117;-61
2022/07/12 01:25:04;;;;;;;6.03;3.22;;;;;;;12.17;76.31;94525.59;4820844;29;20052;-61
2022/07/12 01:27:31;;;;;;;6.05;3.60;;;;;;;12.17;76.45;94530.31;4845704;29;20071;-61
2022/07/12 01:30:01;;;;;;;5.53;3.30;;;;;;;12.12;76.56;94530.78;4844742;29;20406;-60
2022/07/12 01:32:29;;;;;;;6.97;3.65;;;;;;;12.09;77.12;94528.81;4845491;29;20056;-60
2022/07/12 01:35:01;;;;;;;5.53;3.50;;;;;;;12.07;76.99;94534.72;4831828;29;20097;-60
2022/07/12 01:37:30;;;;;;;6.22;4.00;;;;;;;12.07;76.52;94533.97;4845220;29;20456;-60
2022/07/12 01:39:58;;;;;;;7.80;3.95;;;;;;;12.03;76.72;94530.47;4844268;29;20064;-61
2022/07/12 01:42:28;;;;;;;6.03;3.80;;;;;;;12.03;77.00;94531.25;4845190;29;20518;-61
2022/07/12 01:44:56;;;;;;;6.43;3.70;;;;;;;11.99;77.31;94527.75;4844409;29;20050;-61
2022/07/12 01:47:25;;;;;;;7.68;4.47;;;;;;;11.84;77.89;94527.09;4845116;29;20407;-60
2022/07/12 01:49:52;;;;;;;7.35;4.15;;;;;;;11.92;77.66;94525.09;4844862;29;20451;-62
2022/07/12 01:52:20;;;;;;;6.57;3.40;;;;;;;11.92;77.99;94522.34;4837775;29;20357;-61
2022/07/12 01:54:47;;;;;;;6.00;3.67;;;;;;;11.96;77.33;94523.84;4837688;29;20054;-62
2022/07/12 01:57:13;;;;;;;5.78;3.72;;;;;;;11.88;77.46;94519.59;4844636;29;20061;-60
2022/07/12 01:59:41;;;;;;;6.85;3.85;;;;;;;11.72;77.77;94520.16;4844891;29;20056;-60
2022/07/12 02:02:09;;;;;;;5.63;3.45;;;;;;;11.71;78.11;94523.28;4844397;29;20101;-59
2022/07/12 02:04:36;;;;;;;6.10;3.70;;;;;;;11.68;78.12;94513.91;4845004;29;20046;-60
2022/07/12 02:07:04;;;;;;;29.70;15.93;;;;;;;11.54;78.59;94519.53;4817920;29;20069;-60
2022/07/12 02:09:31;;;;;;;11.80;6.75;;;;;;;11.62;78.38;94526.53;4814392;29;20058;-61
2022/07/12 02:11:58;;;;;;;7.30;4.72;;;;;;;11.66;78.27;94523.75;4816940;29;20080;-60
2022/07/12 02:14:26;;;;;;;6.72;3.72;;;;;;;11.62;78.08;94521.03;4839299;29;20491;-62
2022/07/12 02:16:53;;;;;;;5.82;3.53;;;;;;;11.57;78.47;94522.25;4826983;29;20060;-60
2022/07/12 02:19:20;;;;;;;5.57;3.83;;;;;;;11.64;78.17;94517.88;4829242;29;21577;-62
2022/07/12 02:21:46;;;;;;;5.55;3.45;;;;;;;11.65;77.89;94522.19;4841533;29;20048;-60
2022/07/12 02:24:13;;;;;;;6.10;3.70;;;;;;;11.62;78.47;94520.25;4834976;29;20389;-60
2022/07/12 02:26:40;;;;;;;6.43;3.90;;;;;;;11.58;77.83;94512.81;4834620;29;20460;-61
2022/07/12 02:29:07;;;;;;;6.78;4.03;;;;;;;11.56;78.09;94519.91;4827680;29;20044;-60
2022/07/12 02:31:34;;;;;;;7.70;3.80;;;;;;;11.60;78.02;94526.16;4841510;29;20048;-60
2022/07/12 02:34:00;;;;;;;6.75;3.72;;;;;;;11.55;77.78;94526.59;4835712;29;20383;-60
2022/07/12 02:36:27;;;;;;;6.13;3.67;;;;;;;11.22;77.68;94523.34;4841396;29;20072;-60
2022/07/12 02:38:55;;;;;;;26.55;14.73;;;;;;;11.33;77.46;94521.28;4841025;29;20357;-60
2022/07/12 02:41:21;;;;;;;15.48;8.55;;;;;;;11.37;77.62;94526.75;4818539;29;20419;-60
2022/07/12 02:43:48;;;;;;;7.43;4.10;;;;;;;11.35;77.20;94520.91;4834253;29;20533;-61
2022/07/12 02:46:15;;;;;;;6.30;3.63;;;;;;;11.22;77.46;94526.09;4824463;29;20050;-61
2022/07/12 02:48:42;;;;;;;5.57;3.53;;;;;;;11.08;77.51;94520.72;4841286;29;20413;-60
2022/07/12 02:51:09;;;;;;;6.57;3.80;;;;;;;11.06;78.02;94523.84;4840393;29;20057;-60
2022/07/12 02:53:37;;;;;;;7.18;3.80;;;;;;;11.10;78.36;94521.09;4841271;29;20058;-61
2022/07/12 02:56:08;;;;;;;6.10;3.60;;;;;;;11.03;78.63;94527.41;4840568;29;20056;-60
2022/07/12 02:58:36;;;;;;;5.90;3.35;;;;;;;11.08;78.73;94528.94;4826249;29;20488;-59
2022/07/12 03:01:03;;;;;;;6.50;4.00;;;;;;;11.07;78.61;94530.16;4840519;29;20054;-61
2022/07/12 03:03:30;;;;;;;5.95;3.67;;;;;;;11.14;79.08;94525.34;4840801;29;20075;-63
2022/07/12 03:05:58;;;;;;;6.78;3.75;;;;;;;11.12;78.96;94522.22;4828011;29;20046;-61
2022/07/12 03:08:24;;;;;;;6.10;3.83;;;;;;;11.12;79.07;94532.44;4808443;29;20061;-61
2022/07/12 03:10:51;;;;;;;6.38;3.85;;;;;;;11.11;79.18;94526.19;4813798;29;20048;-61
2022/07/12 03:13:18;;;;;;;5.78;3.67;;;;;;;11.11;79.30;94531.66;4815452;29;20057;-61
2022/07/12 03:15:49;;;;;;;6.53;3.83;;;;;;;11.10;79.44;94530.09;4832217;29;20064;-61
2022/07/12 03:18:19;;;;;;;6.35;3.78;;;;;;;11.02;79.82;94539.56;4835472;29;20042;-61
2022/07/12 03:20:48;;;;;;;7.70;4.20;;;;;;;10.93;80.20;94539.25;4840013;29;20053;-62
2022/07/12 03:23:15;;;;;;;7.72;4.40;;;;;;;10.90;80.41;94542.78;4839496;29;20046;-61
2022/07/12 03:25:42;;;;;;;7.47;4.07;;;;;;;10.91;80.08;94536.13;4828223;29;20090;-61
2022/07/12 03:28:09;;;;;;;7.18;4.30;;;;;;;10.89;80.67;94535.75;4823820;29;20046;-60
2022/07/12 03:30:37;;;;;;;7.43;4.90;;;;;;;10.76;81.75;94541.69;4835677;29;20106;-60
2022/07/12 03:33:04;;;;;;;12.70;6.43;;;;;;;10.73;81.89;94542.50;4831924;29;20476;-60
2022/07/12 03:35:30;;;;;;;12.35;6.00;;;;;;;10.78;81.47;94544.03;4836943;29;20454;-62
2022/07/12 03:37:57;;;;;;;17.20;7.00;;;;;;;10.82;81.70;94547.53;4839910;29;20702;-61
2022/07/12 03:40:24;;;;;;;15.02;6.97;;;;;;;10.88;81.58;94553.41;4839012;29;20056;-60
2022/07/12 03:42:52;;;;;;;12.68;6.47;;;;;;;10.91;81.44;94549.88;4829414;29;20057;-60
2022/07/12 03:45:19;;;;;;;11.27;5.60;;;;;;;10.91;81.83;94549.88;4826743;29;21698;-61
2022/07/12 03:47:48;;;;;;;11.75;5.63;;;;;;;10.94;81.57;94549.03;4839268;29;20402;-59
2022/07/12 03:50:14;;;;;;;9.48;5.10;;;;;;;10.79;80.72;94551.09;4839752;29;20076;-59
2022/07/12 03:52:42;;;;;;;9.13;5.30;;;;;;;10.78;80.47;94549.53;4839799;29;20060;-59
2022/07/12 03:55:11;;;;;;;9.40;5.18;;;;;;;10.83;79.78;94559.34;4839581;29;20402;-59
2022/07/12 03:57:37;;;;;;;8.40;4.93;;;;;;;10.83;80.12;94562.06;4840108;29;20064;-60
2022/07/12 04:00:11;;;;;;;11.63;4.78;;;;;;;10.91;79.70;94560.84;4826672;29;20357;-59
2022/07/12 04:02:39;;;;;;;10.20;4.55;;;;;;;10.93;79.43;94558.47;4840247;29;20064;-59
2022/07/12 04:05:07;;;;;;;7.15;4.47;;;;;;;10.96;79.20;94558.44;4839433;29;20049;-60
2022/07/12 04:07:35;;;;;;;11.43;5.00;;;;;;;10.82;79.58;94569.50;4819326;29;20047;-60
2022/07/12 04:10:02;;;;;;;8.63;4.43;;;;;;;10.77;79.48;94562.50;4803253;29;20043;-60
2022/07/12 04:12:29;;;;;;;8.90;4.60;;;;;;;10.73;79.98;94561.72;4821922;29;20054;-60
2022/07/12 04:14:56;;;;;;;8.07;5.10;;;;;;;10.59;81.21;94554.34;4824239;29;20415;-59
2022/07/12 04:17:23;;;;;;;9.73;5.25;;;;;;;10.45;83.17;94559.13;4825615;29;20643;-60
2022/07/12 04:19:49;;;;;;;8.43;5.60;;;;;;;10.42;83.68;94557.94;4827357;29;20396;-61
2022/07/12 04:22:16;;;;;;;7.40;5.00;;;;;;;10.69;82.64;94563.72;4839103;29;20053;-60
2022/07/12 04:24:43;;;;;;;8.73;5.40;;;;;;;10.86;82.08;94553.03;4834395;29;20054;-60
2022/07/12 04:27:10;;;;;;;10.80;5.30;;;;;;;10.89;81.54;94565.97;4831814;29;20062;-61
2022/07/12 04:29:37;;;;;;;9.73;5.55;;;;;;;11.02;81.15;94563.53;4839423;29;20038;-61
2022/07/12 04:32:04;;;;;;;7.72;4.97;;;;;;;11.23;80.46;94570.81;4838610;29;20052;-61
2022/07/12 04:34:31;;;;;;;7.83;5.10;;;;;;;11.32;79.20;94562.91;4810327;29;20078;-63
2022/07/12 04:36:57;;;;;;;10.13;5.32;;;;;;;11.32;78.68;94569.19;4825081;29;20454;-60
2022/07/12 04:39:24;;;;;;;8.20;5.28;;;;;;;11.39;78.29;94569.13;4839390;29;20054;-60
2022/07/12 04:41:51;;;;;;;8.25;4.60;;;;;;;11.42;78.48;94566.75;4833527;29;20122;-62
2022/07/12 04:44:17;;;;;;;12.75;6.85;;;;;;;11.46;78.67;94568.28;4831987;29;20052;-61
2022/07/12 04:46:44;;;;;;;8.50;5.20;;;;;;;11.53;78.39;94567.44;4823258;29;20057;-60
2022/07/12 04:49:11;;;;;;;8.35;4.43;;;;;;;11.33;77.95;94559.00;4838911;29;20054;-60
2022/07/12 04:51:38;;;;;;;8.57;5.03;;;;;;;11.30;77.65;94565.28;4839187;29;20500;-60
2022/07/12 04:54:05;;;;;;;6.63;4.30;;;;;;;11.52;76.70;94565.91;4822952;29;20407;-60
2022/07/12 04:56:31;;;;;;;7.75;4.60;;;;;;;11.49;76.97;94570.25;4839361;29;20416;-61
2022/07/12 04:58:58;;;;;;;7.37;4.87;;;;;;;11.46;76.93;94570.25;4838588;29;20050;-60
2022/07/12 05:01:28;;;;;;;6.93;4.32;;;;;;;11.34;78.03;94571.53;4839325;29;20419;-61
2022/07/12 05:03:55;;;;;;;8.77;5.13;;;;;;;11.34;79.24;94582.53;4838645;29;20056;-60
2022/07/12 05:06:25;;;;;;;9.40;5.45;;;;;;;11.11;80.79;94588.59;4839409;29;20407;-61
2022/07/12 05:08:52;;;;;;;8.27;5.45;;;;;;;10.98;81.05;94585.50;4839261;29;20046;-61
2022/07/12 05:11:19;;;;;;;7.93;5.47;;;;;;;11.09;81.53;94580.75;4822754;29;20424;-60
2022/07/12 05:13:46;;;;;;;10.20;6.22;;;;;;;11.16;81.77;94580.66;4839053;29;20125;-58
2022/07/12 05:16:14;;;;;;;10.77;6.00;;;;;;;11.50;81.42;94580.03;4814574;29;20053;-60
2022/07/12 05:18:41;;;;;;;10.40;5.80;;;;;;;11.87;80.45;94581.31;4802217;29;20051;-60
2022/07/12 05:21:08;;;;;;;9.73;5.60;;;;;;;11.97;80.41;94585.13;4807731;29;20436;-60
2022/07/12 05:23:34;;;;;;;9.47;5.67;;;;;;;12.01;80.13;94580.38;4839260;29;20058;-61
2022/07/12 05:26:02;;;;;;;10.13;5.35;;;;;;;11.88;79.81;94585.59;4838421;29;20058;-60
2022/07/12 05:28:28;;;;;;;8.90;5.80;;;;;;;12.15;79.33;94583.00;4838689;29;20050;-60
2022/07/12 05:30:55;;;;;;;7.82;4.93;;;;;;;14.06;72.11;94585.84;4838370;29;20057;-61
2022/07/12 05:33:22;;;;;;;7.45;4.97;;;;;;;17.14;61.06;94583.34;4837594;29;20124;-61
2022/07/12 05:35:49;;;;;;;6.37;2.73;;;;;;;19.05;54.92;94575.81;4827917;29;20046;-60
2022/07/12 05:38:16;;;;;;;3.20;1.80;;;;;;;19.38;52.82;94572.59;4838263;29;20045;-60
2022/07/12 05:40:42;;;;;;;3.55;2.30;;;;;;;19.83;51.97;94562.88;4832758;29;20148;-61
2022/07/12 05:43:09;;;;;;;3.78;2.25;;;;;;;20.19;50.99;94564.19;4802661;29;20046;-60
2022/07/12 05:45:36;;;;;;;4.45;2.78;;;;;;;20.64;49.23;94571.03;4804964;29;20059;-61
2022/07/12 05:48:03;;;;;;;5.00;2.37;;;;;;;18.77;54.77;94567.28;4804673;29;20047;-63
2022/07/12 05:50:30;;;;;;;4.03;2.30;;;;;;;20.13;51.57;94568.81;4805515;29;20047;-61
2022/07/12 05:55:41;;;;;;;3.97;2.30;;;;;;;22.48;45.44;94582.81;4825405;29;20064;-61
2022/07/12 05:58:08;;;;;;;3.00;1.90;;;;;;;23.57;43.27;94582.28;4841391;29;20062;-61
2022/07/12 06:00:35;;;;;;;3.20;1.93;;;;;;;24.68;41.67;94583.59;4833940;29;20054;-62
2022/07/12 06:03:02;;;;;;;3.78;2.00;;;;;;;25.99;38.67;94570.28;4804903;29;20053;-69
2022/07/12 06:05:29;;;;;;;3.30;1.70;;;;;;;25.91;37.99;94581.22;4819423;29;20050;-64
2022/07/12 06:07:57;;;;;;;3.00;1.58;;;;;;;25.87;38.36;94589.09;4836268;29;20129;-66
2022/07/12 06:10:23;;;;;;;3.35;1.65;;;;;;;27.53;34.71;94581.66;4829103;29;20118;-63
2022/07/12 06:12:50;;;;;;;3.40;2.00;;;;;;;29.03;33.34;94580.34;4814869;29;20555;-62
2022/07/12 06:15:17;;;;;;;5.25;3.60;;;;;;;27.88;33.80;94591.69;4841341;29;20045;-65
2022/07/12 06:17:44;;;;;;;5.78;3.58;;;;;;;29.14;32.42;94588.00;4839338;29;20050;-62
2022/07/12 06:20:11;;;;;;;12.40;3.80;;;;;;;28.98;32.75;94581.91;4818728;29;20046;-63
2022/07/12 06:22:38;;;;;;;5.43;3.50;;;;;;;27.91;34.06;94596.31;4841771;29;20479;-63
2022/07/12 06:25:06;;;;;;;6.67;3.77;;;;;;;29.03;32.93;94580.34;4827928;29;20046;-63
2022/07/12 06:27:52;;;;;;;9.57;4.05;;;;;;;29.28;32.46;94593.34;4841632;29;20057;-63
2022/07/12 06:30:20;;;;;;;5.75;3.85;;;;;;;28.78;33.34;94599.97;4840471;29;20800;-63
2022/07/12 06:32:48;;;;;;;7.18;3.95;;;;;;;28.68;33.89;94595.91;4841629;29;20078;-63
2022/07/12 06:35:16;;;;;;;5.15;3.40;;;;;;;30.19;32.22;94592.66;4824928;29;20098;-63
2022/07/12 06:37:43;;;;;;;7.47;3.60;;;;;;;30.49;31.26;94600.38;4822993;29;20077;-67
2022/07/12 06:40:11;;;;;;;7.25;3.78;;;;;;;29.20;32.93;94600.84;4838690;29;20054;-68
2022/07/12 06:42:38;;;;;;;5.47;3.65;;;;;;;30.85;30.57;94601.00;4841607;29;20571;-64
2022/07/12 06:45:05;;;;;;;4.78;3.60;;;;;;;28.46;32.26;94593.91;4841030;29;20064;-63
2022/07/12 06:47:32;;;;;;;4.65;3.50;;;;;;;28.85;32.81;94593.78;4841493;29;20050;-64
2022/07/12 06:49:59;;;;;;;4.80;3.20;;;;;;;30.54;30.70;94591.03;4840964;29;20403;-63
2022/07/12 06:52:26;;;;;;;5.60;3.10;;;;;;;32.37;28.39;94601.59;4841133;29;20068;-63
2022/07/12 06:54:58;;;;;;;4.60;3.28;;;;;;;32.59;27.47;94602.53;4840015;29;20049;-69
2022/07/12 06:57:26;;;;;;;4.53;3.10;;;;;;;28.27;33.75;94600.09;4841194;29;20050;-63
2022/07/12 06:59:54;;;;;;;6.32;3.20;;;;;;;30.43;30.31;94597.59;4841487;29;20488;-63
2022/07/12 07:02:21;;;;;;;3.97;2.90;;;;;;;31.48;27.77;94589.66;4840323;29;20921;-63
2022/07/12 07:04:48;;;;;;;5.75;3.13;;;;;;;25.37;37.18;94602.75;4841168;29;20042;-64
2022/07/12 07:07:15;;;;;;;3.45;2.70;;;;;;;28.50;32.57;94597.25;4840719;29;20053;-67
2022/07/12 07:09:42;;;;;;;4.85;2.88;;;;;;;29.27;31.54;94597.44;4833732;29;20077;-64
2022/07/12 07:12:09;;;;;;;4.80;2.60;;;;;;;27.82;33.02;94605.75;4833059;29;20136;-63
2022/07/12 07:14:36;;;;;;;3.77;2.77;;;;;;;27.26;34.76;94597.25;4840985;29;20393;-66
2022/07/12 07:17:03;;;;;;;3.95;2.90;;;;;;;27.89;33.48;94607.34;4840563;29;20055;-63
2022/07/12 07:19:30;;;;;;;4.63;2.88;;;;;;;29.06;32.34;94599.84;4840815;29;20050;-63
2022/07/12 07:21:58;;;;;;;5.78;2.90;;;;;;;26.74;34.66;94615.22;4840386;29;20042;-63
2022/07/12 07:24:25;;;;;;;4.03;2.90;;;;;;;28.12;32.88;94607.31;4824663;29;20085;-67
2022/07/12 07:26:52;;;;;;;5.47;3.10;;;;;;;27.66;33.11;94617.81;4840798;29;20403;-64
2022/07/12 07:32:10;;;;;;;4.50;2.95;;;;;;;26.88;34.06;94617.09;4840146;29;20046;-63
2022/07/12 07:34:37;;;;;;;4.03;3.03;;;;;;;28.99;31.31;94611.69;4838217;29;20041;-64
2022/07/12 07:37:04;;;;;;;4.00;3.00;;;;;;;27.56;33.25;94613.69;4840018;29;20098;-63
2022/07/12 07:39:31;;;;;;;3.43;2.57;;;;;;;27.94;31.99;94620.66;4840461;29;20483;-64
2022/07/12 07:41:57;;;;;;;4.70;2.50;;;;;;;28.27;32.14;94622.69;4829209;29;20080;-63
2022/07/12 07:44:24;;;;;;;3.65;2.58;;;;;;;27.76;32.40;94621.91;4837088;29;20054;-62
2022/07/12 07:46:59;;;;;;;3.30;2.65;;;;;;;29.11;30.07;94620.91;4839993;29;20121;-63
2022/07/12 07:49:26;;;;;;;3.78;2.60;;;;;;;29.60;30.11;94629.66;4833465;29;20483;-66
2022/07/12 07:51:53;;;;;;;3.67;2.40;;;;;;;30.49;28.77;94625.88;4804156;29;20053;-67
2022/07/12 07:54:20;;;;;;;3.92;2.50;;;;;;;30.09;29.14;94633.94;4814677;29;20412;-62
2022/07/12 07:56:46;;;;;;;3.65;2.55;;;;;;;31.54;28.13;94635.72;4822297;29;20046;-62
2022/07/12 07:59:13;;;;;;;3.88;2.58;;;;;;;34.11;24.00;94629.81;4828842;29;20050;-66
2022/07/12 08:01:45;;;;;;;4.20;2.63;;;;;;;32.33;26.13;94626.72;4834583;29;20061;-64
2022/07/12 08:04:13;;;;;;;4.27;2.80;;;;;;;29.77;29.70;94618.22;4839699;29;20392;-62
2022/07/12 08:06:41;;;;;;;4.50;2.95;;;;;;;30.13;29.46;94618.19;4840247;29;20049;-63
2022/07/12 08:09:08;;;;;;;4.53;2.90;;;;;;;28.46;31.27;94622.91;4821964;29;20046;-65
2022/07/12 08:11:39;;;;;;;3.90;2.83;;;;;;;28.37;31.79;94619.56;4832553;29;20113;-63
2022/07/12 08:14:07;;;;;;;3.72;2.65;;;;;;;27.00;33.99;94629.16;4839465;29;20048;-62
2022/07/12 08:16:35;;;;;;;3.53;2.70;;;;;;;29.82;29.61;94623.09;4839758;29;20119;-62
2022/07/12 08:19:03;;;;;;;3.20;2.40;;;;;;;29.96;29.46;94623.22;4839290;29;20783;-63
2022/07/12 08:21:30;;;;;;;4.22;2.70;;;;;;;29.57;29.44;94627.09;4839968;29;20088;-63
2022/07/12 08:23:57;;;;;;;4.50;3.00;;;;;;;25.21;36.99;94626.56;4838613;29;20045;-67
2022/07/12 08:26:24;;;;;;;3.58;2.70;;;;;;;27.04;33.87;94626.88;4827982;29;20050;-63
2022/07/12 08:28:51;;;;;;;4.60;2.90;;;;;;;27.54;32.70;94628.31;4839925;29;20514;-66
2022/07/12 08:31:18;;;;;;;3.70;2.85;;;;;;;28.16;32.30;94628.34;4838948;29;20054;-62
2022/07/12 08:33:45;;;;;;;4.15;2.53;;;;;;;30.24;28.81;94626.59;4836148;29;20039;-63
2022/07/12 08:36:12;;;;;;;5.38;2.97;;;;;;;30.68;27.84;94609.69;4836882;29;20038;-63
2022/07/12 08:38:40;;;;;;;3.40;2.50;;;;;;;27.46;32.46;94616.00;4839813;29;20054;-64
2022/07/12 08:41:09;;;;;;;4.30;2.80;;;;;;;28.04;32.43;94624.00;4839262;29;20057;-63
2022/07/12 08:43:36;;;;;;;3.72;2.67;;;;;;;30.78;28.31;94616.50;4839647;29;20072;-67
2022/07/12 08:46:07;;;;;;;3.90;2.50;;;;;;;33.48;24.98;94604.84;4839054;29;20046;-67
2022/07/12 08:48:35;;;;;;;3.72;2.65;;;;;;;33.08;25.16;94612.69;4839491;29;20058;-63
2022/07/12 08:51:13;;;;;;;4.00;2.55;;;;;;;33.00;24.94;94613.34;4807949;29;20065;-63
2022/07/12 08:53:40;;;;;;;4.17;2.80;;;;;;;32.03;26.55;94619.22;4809935;29;20419;-63
2022/07/12 08:56:31;;;;;;;3.40;2.50;;;;;;;31.15;27.04;94612.25;4820758;29;20118;-65
2022/07/12 08:59:21;;;;;;;3.50;2.53;;;;;;;29.34;29.48;94617.97;4828276;29;20055;-62
2022/07/12 09:01:50;;;;;;;4.75;2.80;;;;;;;28.58;30.83;94618.03;4826599;29;20061;-63
2022/07/12 09:04:18;;;;;;;5.80;2.70;;;;;;;28.81;30.14;94617.94;4839146;29;20042;-67
2022/07/12 09:06:46;;;;;;;3.93;2.70;;;;;;;25.96;34.78;94621.94;4838726;29;20054;-62
2022/07/12 09:09:27;;;;;;;5.05;2.72;;;;;;;26.29;34.70;94618.56;4827041;29;20069;-63
2022/07/12 09:11:54;;;;;;;5.03;3.00;;;;;;;26.92;33.16;94630.94;4826510;29;20073;-65
2022/07/12 09:14:22;;;;;;;3.72;2.97;;;;;;;27.28;31.73;94628.50;4838602;29;20861;-66
2022/07/12 09:17:10;;;;;;;4.38;2.65;;;;;;;27.15;32.63;94634.59;4839156;29;20050;-64
2022/07/12 09:19:37;;;;;;;4.27;2.73;;;;;;;27.27;31.84;94641.84;4816825;29;20919;-63
2022/07/12 09:22:13;;;;;;;4.15;2.83;;;;;;;29.92;28.80;94634.06;4842784;29;20499;-63
2022/07/12 09:24:39;;;;;;;4.50;3.15;;;;;;;32.64;24.17;94632.94;4835907;29;20435;-63
2022/07/12 09:27:06;;;;;;;3.30;2.63;;;;;;;28.79;28.60;94643.13;4836588;29;20052;-62
2022/07/12 09:29:46;;;;;;;3.80;2.63;;;;;;;28.17;30.09;94646.03;4842796;29;20069;-63
2022/07/12 09:37:44;;;;;;;4.13;2.60;;;;;;;29.37;27.98;94631.06;4842613;29;20054;-63
2022/07/12 09:40:12;;;;;;;3.60;2.35;;;;;;;31.16;25.60;94632.84;4842156;29;20091;-64
2022/07/12 09:42:40;;;;;;;5.15;2.20;;;;;;;34.70;22.46;94627.31;4842735;29;20084;-64
2022/07/12 09:45:08;;;;;;;3.90;2.40;;;;;;;29.52;27.91;94639.97;4842026;29;20049;-69
2022/07/12 09:47:35;;;;;;;3.00;2.30;;;;;;;33.47;24.29;94631.78;4842804;29;20053;-68
2022/07/12 09:50:04;;;;;;;4.68;2.80;;;;;;;31.20;25.61;94630.47;4826246;29;20165;-66
2022/07/12 09:52:33;;;;;;;4.18;2.40;;;;;;;31.25;25.29;94621.91;4806353;29;20050;-64
2022/07/12 09:55:02;;;;;;;3.60;2.25;;;;;;;32.19;24.97;94623.09;4826754;29;20066;-66
2022/07/12 09:57:33;;;;;;;3.83;2.20;;;;;;;33.85;22.82;94620.09;4841688;29;20050;-63
2022/07/12 10:00:01;;;;;;;5.47;2.45;;;;;;;31.53;24.31;94623.63;4829107;29;20054;-63
2022/07/12 10:02:28;;;;;;;4.15;2.50;;;;;;;30.06;26.78;94624.41;4842295;29;20464;-63
2022/07/12 10:04:59;;;;;;;3.45;2.20;;;;;;;29.08;28.74;94627.59;4841583;29;20463;-63
2022/07/12 10:07:26;;;;;;;3.13;2.28;;;;;;;28.52;29.88;94631.38;4830888;29;20057;-65
2022/07/12 10:09:53;;;;;;;4.63;2.90;;;;;;;28.28;29.59;94632.69;4840906;29;20080;-67
2022/07/12 10:12:22;;;;;;;3.50;2.30;;;;;;;28.65;29.25;94633.66;4841100;29;21688;-64
2022/07/12 10:14:57;;;;;;;3.50;2.65;;;;;;;28.39;29.71;94637.56;4842325;29;20046;-63
2022/07/12 10:17:24;;;;;;;4.85;2.90;;;;;;;30.99;27.11;94631.00;4835960;29;20077;-63
2022/07/12 10:20:18;;;;;;;3.85;2.65;;;;;;;31.21;26.65;94637.66;4834392;29;20054;-62
2022/07/12 10:22:45;;;;;;;3.73;2.77;;;;;;;29.14;29.54;94642.50;4816776;29;20098;-67
2022/07/12 10:25:30;;;;;;;3.80;2.75;;;;;;;29.07;29.58;94643.78;4827886;29;20045;-65
2022/07/12 10:27:58;;;;;;;5.30;2.78;;;;;;;29.06;29.52;94645.06;4841400;29;20057;-62
2022/07/12 10:30:25;;;;;;;4.03;3.00;;;;;;;28.98;29.24;94646.16;4840470;29;20054;-63
2022/07/12 10:32:57;;;;;;;5.35;3.15;;;;;;;31.24;26.65;94643.03;4841809;29;20054;-67
2022/07/12 10:35:26;;;;;;;3.17;2.43;;;;;;;27.92;30.61;94651.44;4837855;29;20054;-67
2022/07/12 10:38:11;;;;;;;5.13;2.65;;;;;;;29.89;28.05;94643.63;4841150;29;20049;-63
2022/07/12 10:40:43;;;;;;;5.45;2.60;;;;;;;31.84;25.36;94638.38;4840982;29;20403;-63
2022/07/12 10:43:10;;;;;;;3.38;2.53;;;;;;;32.30;24.29;94639.19;4840852;29;20419;-66
2022/07/12 10:45:42;;;;;;;3.40;2.33;;;;;;;31.04;26.23;94637.88;4841720;29;20045;-66
2022/07/12 10:48:14;;;;;;;4.10;2.60;;;;;;;30.05;26.97;94634.97;4840950;29;20050;-63
2022/07/12 10:51:00;;;;;;;3.88;2.50;;;;;;;31.52;25.68;94638.31;4815953;29;20111;-67
2022/07/12 10:53:37;;;;;;;3.70;2.70;;;;;;;30.09;27.10;94629.03;4813051;29;21713;-64
2022/07/12 10:56:07;;;;;;;5.50;2.70;;;;;;;29.73;27.64;94631.88;4832037;29;20062;-67
2022/07/12 10:58:36;;;;;;;4.00;2.90;;;;;;;28.43;29.92;94626.78;4825933;29;20055;-67
2022/07/12 11:01:08;;;;;;;3.83;2.93;;;;;;;26.96;33.31;94634.25;4835574;29;20064;-62
2022/07/12 11:03:41;;;;;;;4.82;2.90;;;;;;;26.29;32.39;94629.81;4841261;29;20057;-62
2022/07/12 11:06:13;;;;;;;4.00;2.80;;;;;;;26.55;33.70;94623.31;4839275;29;20456;-62
2022/07/12 11:08:50;;;;;;;4.18;2.95;;;;;;;25.38;33.68;94623.97;4822950;29;20491;-62
2022/07/12 11:11:18;;;;;;;4.18;2.78;;;;;;;26.05;32.72;94616.09;4837150;29;20397;-62
2022/07/12 11:13:45;;;;;;;4.27;2.90;;;;;;;27.10;31.51;94622.03;4841067;29;20418;-62
2022/07/12 11:16:12;;;;;;;5.35;2.65;;;;;;;27.74;30.12;94618.84;4840867;29;20042;-62
2022/07/12 11:18:39;;;;;;;4.35;2.97;;;;;;;28.15;29.43;94609.09;4841137;29;20097;-66
2022/07/12 11:21:06;;;;;;;5.28;2.88;;;;;;;28.96;29.88;94607.09;4840131;29;20050;-62
2022/07/12 11:23:34;;;;;;;4.75;2.75;;;;;;;29.47;28.20;94604.00;4836692;29;20057;-62
2022/07/12 11:26:03;;;;;;;5.27;2.70;;;;;;;28.91;28.81;94607.13;4831595;29;20076;-63
2022/07/12 11:28:31;;;;;;;4.40;3.08;;;;;;;27.25;31.00;94609.81;4840443;29;20060;-62
2022/07/12 11:31:05;;;;;;;6.00;2.83;;;;;;;28.10;29.71;94610.66;4832551;29;20046;-64
2022/07/12 11:33:36;;;;;;;3.75;2.78;;;;;;;28.12;29.92;94612.97;4834326;29;20042;-64
2022/07/12 11:36:06;;;;;;;6.82;3.30;;;;;;;26.72;31.47;94617.03;4811028;29;20050;-65
2022/07/12 11:38:34;;;;;;;4.23;3.10;;;;;;;26.60;32.46;94622.63;4840702;29;20042;-64
2022/07/12 11:41:10;;;;;;;6.15;3.25;;;;;;;25.76;34.31;94616.38;4839832;29;20064;-62
2022/07/12 11:43:38;;;;;;;4.32;3.20;;;;;;;27.03;32.71;94614.06;4840330;29;20050;-62
2022/07/12 11:46:06;;;;;;;4.78;3.00;;;;;;;28.15;31.16;94624.00;4827298;29;20046;-62
2022/07/12 11:48:32;;;;;;;6.10;2.88;;;;;;;28.48;30.90;94605.44;4840624;29;20046;-64